Time;durP1;ratioP1;P1;durP2;ratioP2;P2;SDS_P1;SDS_P2;PMS_P1;PMS_P2;Temp;Humidity;BMP_temperature;BMP_pressure;BME280_temperature;BME280_humidity;BME280_pressure;Samples;Min_cycle;Max_cycle;Signal;HPM_P1;HPM_P2
2023/09/10 00:00:41;;;;;;;51.85;46.13;;;;;;;20.87;75.83;101809.72;7397765;19;20018;-59
2023/09/10 00:03:08;;;;;;;48.22;42.90;;;;;;;20.92;75.47;101814.66;7394081;19;20019;-59
2023/09/10 00:05:36;;;;;;;40.60;36.17;;;;;;;20.94;75.21;101815.31;7396811;19;20378;-59
2023/09/10 00:08:04;;;;;;;43.97;36.78;;;;;;;20.91;74.91;101810.25;7397891;19;20033;-59
2023/09/10 00:10:32;;;;;;;43.30;38.60;;;;;;;20.89;75.01;101813.09;7397342;19;20014;-59
2023/09/10 00:13:03;;;;;;;47.38;41.85;;;;;;;20.75;75.31;101815.47;7392141;19;20018;-59
2023/09/10 00:15:30;;;;;;;42.58;37.08;;;;;;;20.69;75.95;101807.03;7397270;19;20030;-59
2023/09/10 00:17:59;;;;;;;42.60;37.83;;;;;;;20.76;75.86;101809.97;7395627;19;20298;-58
2023/09/10 00:20:27;;;;;;;43.97;38.35;;;;;;;20.68;75.53;101804.47;7397114;19;20018;-58
2023/09/10 00:22:57;;;;;;;50.35;42.78;;;;;;;20.74;75.90;101808.41;7394120;19;20030;-59
2023/09/10 00:25:25;;;;;;;48.33;41.40;;;;;;;20.62;75.76;101803.25;7397030;19;20025;-59
2023/09/10 00:27:52;;;;;;;46.20;40.72;;;;;;;20.53;76.61;101814.06;7396493;19;20026;-59
2023/09/10 00:30:20;;;;;;;53.80;46.47;;;;;;;20.63;76.43;101814.84;7396281;19;20437;-58
2023/09/10 00:32:48;;;;;;;55.05;45.88;;;;;;;20.69;76.06;101807.03;7395053;19;20081;-58
2023/09/10 00:35:15;;;;;;;52.13;45.70;;;;;;;20.58;76.19;101809.94;7397276;19;20018;-58
2023/09/10 00:37:43;;;;;;;52.30;45.50;;;;;;;20.44;77.10;101816.66;7397400;19;20054;-58
2023/09/10 00:40:11;;;;;;;52.80;46.15;;;;;;;20.56;76.66;101821.84;7397142;19;20688;-58
2023/09/10 00:42:39;;;;;;;56.70;47.83;;;;;;;20.62;76.28;101818.56;7396678;19;20020;-58
2023/09/10 00:45:12;;;;;;;65.00;52.95;;;;;;;20.63;76.34;101818.41;7394827;19;20010;-58
2023/09/10 00:47:42;;;;;;;61.17;52.13;;;;;;;20.76;76.18;101815.34;7394715;19;20437;-58
2023/09/10 00:50:11;;;;;;;62.45;52.63;;;;;;;20.77;75.92;101813.50;7396835;19;20491;-62
2023/09/10 00:52:42;;;;;;;63.17;52.28;;;;;;;20.61;76.78;101815.03;7394921;19;20022;-62
2023/09/10 00:55:10;;;;;;;60.88;50.88;;;;;;;20.59;76.50;101816.16;7394853;19;20089;-63
2023/09/10 00:57:38;;;;;;;58.88;48.08;;;;;;;20.60;76.60;101816.00;7395768;19;20481;-62
2023/09/10 01:00:08;;;;;;;60.47;50.80;;;;;;;20.47;76.83;101817.34;7396107;19;20029;-62
2023/09/10 01:02:38;;;;;;;57.65;49.30;;;;;;;20.44;77.22;101818.50;7395835;19;20028;-62
2023/09/10 01:05:06;;;;;;;65.25;54.33;;;;;;;20.40;77.65;101823.34;7395096;19;20022;-62
2023/09/10 01:07:34;;;;;;;68.78;55.70;;;;;;;20.30;77.98;101819.00;7392729;19;20025;-60
2023/09/10 01:10:02;;;;;;;61.80;52.45;;;;;;;20.33;78.28;101818.69;7395116;19;20024;-61
2023/09/10 01:12:38;;;;;;;71.40;56.15;;;;;;;20.36;78.03;101827.31;7393708;19;20364;-62
2023/09/10 01:15:26;;;;;;;71.65;57.85;;;;;;;20.18;78.48;101821.94;7394547;19;20017;-62
2023/09/10 01:18:02;;;;;;;65.45;52.67;;;;;;;20.08;78.74;101821.13;7394868;19;20093;-62
2023/09/10 01:20:33;;;;;;;69.82;56.33;;;;;;;20.08;79.30;101815.75;7395514;19;20085;-62
2023/09/10 01:23:13;;;;;;;60.65;51.00;;;;;;;20.20;78.46;101819.91;7391998;19;20022;-62
2023/09/10 01:25:42;;;;;;;66.47;53.92;;;;;;;20.32;78.34;101814.34;7393295;19;20042;-63
2023/09/10 01:28:10;;;;;;;72.50;55.65;;;;;;;20.31;77.93;101818.88;7394547;19;20018;-64
2023/09/10 01:30:38;;;;;;;72.93;59.45;;;;;;;20.02;79.24;101820.84;7394643;19;20018;-62
2023/09/10 01:33:19;;;;;;;70.50;57.80;;;;;;;20.11;78.85;101814.56;7392472;19;20018;-61
2023/09/10 01:36:21;;;;;;;73.18;57.22;;;;;;;20.06;79.16;101817.72;7393148;19;20039;-62
2023/09/10 01:39:26;;;;;;;72.90;60.35;;;;;;;19.93;80.11;101822.59;7393266;19;20010;-62
2023/09/10 01:41:55;;;;;;;73.07;59.58;;;;;;;19.79;80.13;101818.53;7394428;19;20038;-63
2023/09/10 01:44:25;;;;;;;73.05;57.38;;;;;;;19.96;79.79;101825.00;7391566;19;20019;-63
2023/09/10 01:46:53;;;;;;;68.68;55.05;;;;;;;20.11;78.84;101818.13;7393664;19;20018;-63
2023/09/10 01:49:21;;;;;;;62.90;51.28;;;;;;;20.17;78.71;101817.50;7393632;19;20035;-62
2023/09/10 01:51:49;;;;;;;62.33;52.60;;;;;;;20.23;78.46;101817.94;7390436;19;20025;-62
2023/09/10 01:54:16;;;;;;;63.97;51.85;;;;;;;20.25;77.74;101818.63;7393247;19;20082;-62
2023/09/10 01:56:43;;;;;;;59.72;50.28;;;;;;;20.25;77.91;101816.75;7393555;19;20494;-62
2023/09/10 01:59:11;;;;;;;60.58;49.65;;;;;;;20.27;77.61;101816.63;7393253;19;20017;-64
2023/09/10 02:01:38;;;;;;;76.07;60.10;;;;;;;20.07;78.53;101810.50;7393243;19;20500;-64
2023/09/10 02:04:06;;;;;;;66.90;54.80;;;;;;;19.78;79.69;101818.69;7391603;19;20018;-64
2023/09/10 02:06:33;;;;;;;70.78;55.75;;;;;;;19.65;80.10;101816.31;7394411;19;20042;-63
2023/09/10 02:09:01;;;;;;;70.95;56.65;;;;;;;19.77;79.86;101817.84;7394735;19;20365;-64
2023/09/10 02:11:28;;;;;;;73.03;58.65;;;;;;;19.77;80.04;101819.69;7394221;19;20018;-63
2023/09/10 02:13:56;;;;;;;67.32;53.60;;;;;;;19.81;80.34;101821.94;7392289;19;20018;-64
2023/09/10 02:16:24;;;;;;;67.97;55.85;;;;;;;19.88;79.54;101822.19;7393137;19;20022;-64
2023/09/10 02:18:51;;;;;;;64.82;53.67;;;;;;;19.90;79.50;101825.56;7392283;19;20014;-64
2023/09/10 02:21:19;;;;;;;70.22;55.83;;;;;;;19.93;79.31;101825.28;7392757;19;20645;-64
2023/09/10 02:23:46;;;;;;;70.25;57.40;;;;;;;19.96;79.23;101833.06;7390364;19;20014;-64
2023/09/10 02:26:15;;;;;;;67.95;55.13;;;;;;;20.00;79.14;101837.16;7393376;19;20418;-64
2023/09/10 02:28:43;;;;;;;68.13;55.88;;;;;;;19.95;79.08;101832.19;7393161;19;20043;-64
2023/09/10 02:31:10;;;;;;;68.65;55.78;;;;;;;19.88;78.92;101835.63;7392768;19;20018;-64
2023/09/10 02:33:38;;;;;;;70.50;57.30;;;;;;;19.92;79.31;101837.03;7390987;19;20379;-64
2023/09/10 02:36:06;;;;;;;78.10;62.10;;;;;;;19.98;79.49;101840.97;7393668;19;20019;-64
2023/09/10 02:38:34;;;;;;;79.07;64.70;;;;;;;20.00;79.25;101849.75;7393088;19;20029;-64
2023/09/10 02:41:05;;;;;;;81.95;65.55;;;;;;;20.01;79.56;101846.91;7391586;19;20014;-64
2023/09/10 02:43:33;;;;;;;94.03;73.85;;;;;;;20.07;79.40;101846.31;7389484;19;20018;-63
2023/09/10 02:46:00;;;;;;;95.03;74.10;;;;;;;20.12;79.80;101852.09;7389392;19;20014;-63
2023/09/10 02:48:28;;;;;;;98.18;73.35;;;;;;;20.15;79.50;101854.50;7392113;19;20018;-63
2023/09/10 02:50:55;;;;;;;89.68;68.40;;;;;;;20.05;79.38;101853.69;7392297;19;20016;-63
2023/09/10 02:53:23;;;;;;;83.22;64.82;;;;;;;19.94;79.56;101853.88;7390156;19;20019;-63
2023/09/10 02:56:00;;;;;;;94.82;73.32;;;;;;;20.02;80.06;101847.75;7394481;19;20015;-63
2023/09/10 02:58:29;;;;;;;96.65;74.75;;;;;;;20.02;79.29;101851.28;7395039;19;20042;-63
2023/09/10 03:01:04;;;;;;;96.10;72.63;;;;;;;19.97;79.43;101853.56;7389824;19;20516;-63
2023/09/10 03:03:33;;;;;;;82.70;64.28;;;;;;;19.84;80.04;101853.03;7389077;19;20385;-63
2023/09/10 03:06:00;;;;;;;91.20;66.90;;;;;;;19.72;79.85;101855.91;7390614;19;20014;-63
2023/09/10 03:08:32;;;;;;;82.90;60.90;;;;;;;19.67;80.58;101854.66;7391218;19;20563;-63
2023/09/10 03:11:03;;;;;;;113.50;69.93;;;;;;;19.57;80.74;101856.47;7391855;19;20351;-63
2023/09/10 03:13:31;;;;;;;89.35;63.50;;;;;;;19.53;81.00;101852.38;7388965;19;20047;-63
2023/09/10 03:15:58;;;;;;;89.53;65.38;;;;;;;19.54;81.33;101851.41;7391493;19;20364;-63
2023/09/10 03:18:26;;;;;;;84.93;60.47;;;;;;;19.64;80.75;101852.25;7391118;19;20090;-63
2023/09/10 03:20:54;;;;;;;78.45;57.17;;;;;;;19.64;80.30;101849.56;7392991;19;20018;-64
2023/09/10 03:23:22;;;;;;;84.25;60.92;;;;;;;19.64;80.38;101850.41;7390074;19;20035;-64
2023/09/10 03:25:49;;;;;;;75.30;55.13;;;;;;;19.62;80.48;101848.88;7389991;19;20018;-64
2023/09/10 03:28:17;;;;;;;79.32;56.67;;;;;;;19.57;80.62;101849.25;7390661;19;20745;-65
2023/09/10 03:30:44;;;;;;;77.68;56.90;;;;;;;19.58;80.36;101844.75;7392490;19;20014;-64
2023/09/10 03:33:12;;;;;;;79.50;55.90;;;;;;;19.55;80.79;101850.41;7394727;19;20491;-64
2023/09/10 03:35:39;;;;;;;77.07;56.63;;;;;;;19.54;80.49;101838.81;7396539;19;20029;-64
2023/09/10 03:38:07;;;;;;;80.50;57.10;;;;;;;19.50;80.68;101842.78;7398500;19;20089;-64
2023/09/10 03:40:34;;;;;;;81.50;58.35;;;;;;;19.55;80.58;101840.50;7398441;19;20028;-64
2023/09/10 03:43:02;;;;;;;72.25;55.30;;;;;;;19.61;80.36;101839.06;7396831;19;20018;-63
2023/09/10 03:45:30;;;;;;;86.43;62.90;;;;;;;19.64;79.86;101844.19;7396522;19;20030;-63
2023/09/10 03:47:58;;;;;;;77.65;58.08;;;;;;;19.60;79.83;101835.53;7397781;19;20023;-63
2023/09/10 03:50:25;;;;;;;83.28;60.92;;;;;;;19.44;80.52;101840.69;7397169;19;20077;-63
2023/09/10 03:52:52;;;;;;;75.18;56.13;;;;;;;19.36;80.67;101841.41;7396517;19;20037;-64
2023/09/10 03:55:20;;;;;;;70.85;54.65;;;;;;;19.50;80.04;101842.78;7395078;19;20014;-64
2023/09/10 03:57:47;;;;;;;68.35;52.05;;;;;;;19.42;80.38;101845.31;7397049;19;20125;-64
2023/09/10 04:00:15;;;;;;;68.38;52.10;;;;;;;19.40;80.31;101842.81;7392335;19;20026;-64
2023/09/10 04:02:42;;;;;;;63.22;50.05;;;;;;;19.41;80.41;101841.81;7393415;19;20094;-64
2023/09/10 04:05:11;;;;;;;62.88;49.95;;;;;;;19.46;80.13;101842.25;7391494;19;20018;-64
2023/09/10 04:07:39;;;;;;;71.32;54.70;;;;;;;19.43;79.58;101837.16;7393438;19;20023;-64
2023/09/10 04:10:07;;;;;;;64.50;50.40;;;;;;;19.32;80.28;101836.47;7393780;19;20023;-64
2023/09/10 04:12:36;;;;;;;60.83;49.20;;;;;;;19.40;79.90;101842.81;7394645;19;20101;-64
2023/09/10 04:15:04;;;;;;;60.13;50.08;;;;;;;19.45;79.83;101845.06;7393598;19;20034;-64
2023/09/10 04:17:32;;;;;;;59.08;47.72;;;;;;;19.56;79.40;101841.34;7395156;19;20015;-64
2023/09/10 04:19:59;;;;;;;61.40;48.47;;;;;;;19.51;79.19;101835.59;7397250;19;20031;-64
2023/09/10 04:22:28;;;;;;;57.17;48.30;;;;;;;19.52;79.26;101834.59;7396786;19;20023;-64
2023/09/10 04:24:55;;;;;;;61.78;50.33;;;;;;;19.51;79.29;101836.41;7393214;19;20022;-64
2023/09/10 04:27:23;;;;;;;61.78;49.53;;;;;;;19.62;78.90;101844.34;7396379;19;20051;-64
2023/09/10 04:29:52;;;;;;;60.58;47.42;;;;;;;19.62;78.75;101844.34;7399021;19;20014;-64
2023/09/10 04:32:19;;;;;;;62.05;48.88;;;;;;;19.51;79.17;101849.84;7395937;19;20023;-64
2023/09/10 04:34:47;;;;;;;64.07;50.45;;;;;;;19.56;79.15;101857.47;7392115;19;20046;-64
2023/09/10 04:37:15;;;;;;;65.28;51.53;;;;;;;19.57;79.10;101862.69;7395065;19;20028;-65
2023/09/10 04:39:43;;;;;;;69.07;53.60;;;;;;;19.51;79.42;101855.22;7397023;19;20022;-64
2023/09/10 04:42:10;;;;;;;61.28;49.72;;;;;;;19.51;79.18;101863.28;7393918;19;20026;-63
2023/09/10 04:44:38;;;;;;;69.50;53.08;;;;;;;19.46;79.65;101865.56;7393015;19;20042;-63
2023/09/10 04:47:06;;;;;;;58.63;48.65;;;;;;;19.45;79.11;101859.31;7396371;19;20014;-64
2023/09/10 04:49:33;;;;;;;60.03;48.03;;;;;;;19.43;79.80;101863.16;7395655;19;20014;-64
2023/09/10 04:52:01;;;;;;;57.58;48.33;;;;;;;19.44;79.31;101867.53;7395706;19;20036;-63
2023/09/10 04:54:28;;;;;;;56.72;47.67;;;;;;;19.31;79.60;101866.97;7392548;19;20439;-63
2023/09/10 04:56:55;;;;;;;58.97;47.63;;;;;;;19.34;79.40;101869.38;7395104;19;20014;-63
2023/09/10 04:59:26;;;;;;;48.58;42.75;;;;;;;19.34;79.51;101867.53;7395466;19;20415;-63
2023/09/10 05:01:53;;;;;;;49.22;42.40;;;;;;;19.40;79.39;101868.81;7394181;19;20038;-63
2023/09/10 05:04:21;;;;;;;47.40;40.88;;;;;;;19.39;78.83;101867.13;7393216;19;20356;-63
2023/09/10 05:06:49;;;;;;;46.80;39.88;;;;;;;19.43;78.76;101881.97;7394491;19;20082;-64
2023/09/10 05:09:16;;;;;;;46.40;39.45;;;;;;;19.39;78.80;101880.56;7395659;19;20011;-63
2023/09/10 05:11:43;;;;;;;43.10;37.92;;;;;;;19.42;78.78;101886.50;7395810;19;20029;-63
2023/09/10 05:14:11;;;;;;;44.33;38.20;;;;;;;19.32;78.76;101885.66;7391590;19;20022;-63
2023/09/10 05:16:38;;;;;;;42.80;36.63;;;;;;;19.27;78.82;101882.56;7396042;19;20015;-64
2023/09/10 05:19:06;;;;;;;40.38;35.38;;;;;;;19.19;78.78;101891.31;7395456;19;20020;-63
2023/09/10 05:21:33;;;;;;;34.28;30.58;;;;;;;19.14;78.95;101890.03;7395342;19;20019;-63
2023/09/10 05:24:01;;;;;;;33.83;30.17;;;;;;;19.19;78.65;101887.75;7392253;19;20031;-63
2023/09/10 05:26:28;;;;;;;34.42;30.30;;;;;;;19.21;78.74;101891.16;7395193;19;20029;-63
2023/09/10 05:28:56;;;;;;;36.05;31.27;;;;;;;19.23;78.54;101887.38;7393377;19;20029;-63
2023/09/10 05:31:23;;;;;;;35.15;30.30;;;;;;;19.23;78.23;101890.06;7394783;19;20022;-63
2023/09/10 05:33:51;;;;;;;31.65;28.23;;;;;;;19.27;78.21;101887.94;7393923;19;20046;-63
2023/09/10 05:36:18;;;;;;;35.30;31.17;;;;;;;19.16;78.41;101894.28;7395741;19;20011;-63
2023/09/10 05:38:50;;;;;;;33.38;29.70;;;;;;;19.12;78.94;101892.03;7395825;19;20018;-63
2023/09/10 05:41:17;;;;;;;30.38;27.08;;;;;;;19.14;78.62;101892.72;7394092;19;20417;-63
2023/09/10 05:43:45;;;;;;;31.05;27.67;;;;;;;19.20;78.11;101903.75;7392416;19;20045;-64
2023/09/10 05:46:12;;;;;;;29.27;25.88;;;;;;;19.26;78.00;101896.97;7393704;19;20018;-63
2023/09/10 05:48:40;;;;;;;30.42;26.60;;;;;;;19.28;77.42;101897.69;7394027;19;20014;-62
2023/09/10 05:51:07;;;;;;;26.77;23.65;;;;;;;19.22;78.00;101895.53;7394229;19;20007;-62
2023/09/10 05:53:35;;;;;;;29.80;26.58;;;;;;;19.21;77.69;101894.69;7391216;19;20044;-62
2023/09/10 05:56:03;;;;;;;25.67;22.88;;;;;;;19.16;77.85;101891.59;7393130;19;20023;-62
2023/09/10 05:58:31;;;;;;;26.27;22.70;;;;;;;19.20;77.88;101895.69;7394239;19;20022;-64
2023/09/10 06:00:59;;;;;;;28.27;23.63;;;;;;;19.18;77.89;101900.34;7394125;19;20014;-64
2023/09/10 06:03:26;;;;;;;23.90;21.30;;;;;;;19.18;77.77;101897.66;7392221;19;20029;-64
2023/09/10 06:05:56;;;;;;;26.85;23.92;;;;;;;19.22;77.84;101904.44;7393665;19;20022;-64
2023/09/10 06:08:29;;;;;;;;;;;;;;;19.11;78.08;101909.94;7393610;19;20353;-64
2023/09/10 06:10:56;;;;;;;25.30;22.60;;;;;;;19.12;78.47;101911.66;7393139;19;19935;-64
2023/09/10 06:13:24;;;;;;;24.67;21.95;;;;;;;19.16;78.31;101917.63;7391218;19;20551;-64
2023/09/10 06:15:52;;;;;;;23.27;20.02;;;;;;;19.13;78.52;101921.41;7391486;19;20022;-64
2023/09/10 06:18:19;;;;;;;25.73;21.75;;;;;;;19.19;78.02;101922.69;7392745;19;20018;-64
2023/09/10 06:20:47;;;;;;;21.95;19.08;;;;;;;19.14;78.45;101924.94;7392945;19;20018;-64
2023/09/10 06:23:14;;;;;;;21.85;19.30;;;;;;;19.22;77.88;101931.31;7391578;19;20023;-64
2023/09/10 06:25:42;;;;;;;21.85;19.38;;;;;;;19.28;77.46;101940.66;7393016;19;20023;-64
2023/09/10 06:28:09;;;;;;;22.75;20.10;;;;;;;19.35;77.58;101936.41;7393076;19;20022;-64
2023/09/10 06:30:38;;;;;;;21.33;18.58;;;;;;;19.31;78.03;101935.00;7392624;19;20033;-64
2023/09/10 06:33:05;;;;;;;25.95;21.42;;;;;;;19.28;77.72;101935.28;7391789;19;20102;-65
2023/09/10 06:35:34;;;;;;;21.80;18.45;;;;;;;19.25;78.18;101938.25;7392280;19;20487;-64
2023/09/10 06:38:01;;;;;;;22.52;19.42;;;;;;;19.29;77.40;101936.97;7390703;19;20019;-64
2023/09/10 06:40:29;;;;;;;23.52;19.88;;;;;;;19.32;77.73;101943.91;7391723;19;20417;-64
2023/09/10 06:42:57;;;;;;;22.17;19.38;;;;;;;19.35;77.49;101938.25;7389398;19;20035;-64
2023/09/10 06:45:24;;;;;;;24.25;20.23;;;;;;;19.35;77.32;101938.25;7391873;19;20052;-64
2023/09/10 06:47:52;;;;;;;20.33;17.52;;;;;;;19.38;77.22;101946.84;7392444;19;20039;-64
2023/09/10 06:50:19;;;;;;;20.88;17.45;;;;;;;19.37;77.85;101939.78;7391818;19;20014;-64
2023/09/10 06:52:46;;;;;;;23.38;19.73;;;;;;;19.40;77.37;101938.66;7390190;19;20014;-64
2023/09/10 06:55:14;;;;;;;21.10;18.02;;;;;;;19.51;77.14;101948.44;7390102;19;20029;-64
2023/09/10 06:57:42;;;;;;;22.15;19.52;;;;;;;19.44;76.83;101956.19;7391787;19;20025;-64
2023/09/10 07:00:10;;;;;;;20.38;18.05;;;;;;;19.52;76.75;101950.97;7389943;19;20504;-64
2023/09/10 07:02:37;;;;;;;21.60;18.50;;;;;;;19.51;76.69;101957.34;7391430;19;20025;-64
2023/09/10 07:05:05;;;;;;;20.55;17.48;;;;;;;19.49;76.80;101962.84;7390967;19;20015;-64
2023/09/10 07:07:32;;;;;;;18.98;16.88;;;;;;;19.58;76.45;101963.00;7398841;19;20014;-64
2023/09/10 07:10:00;;;;;;;19.85;16.27;;;;;;;19.48;77.17;101957.63;7399021;19;20078;-64
2023/09/10 07:12:28;;;;;;;20.13;17.90;;;;;;;19.58;76.93;101961.16;7399056;19;20015;-64
2023/09/10 07:14:56;;;;;;;18.73;15.98;;;;;;;19.58;76.75;101954.94;7394771;19;20441;-64
2023/09/10 07:17:23;;;;;;;21.20;14.93;;;;;;;19.61;76.18;101960.88;7397542;19;20035;-64
2023/09/10 07:19:51;;;;;;;18.15;16.17;;;;;;;19.68;76.15;101962.00;7397709;19;20369;-64
2023/09/10 07:22:18;;;;;;;17.73;15.13;;;;;;;19.66;75.96;101955.94;7398379;19;20049;-64
2023/09/10 07:24:45;;;;;;;18.35;15.38;;;;;;;19.70;75.52;101960.03;7393756;19;20020;-64
2023/09/10 07:27:13;;;;;;;17.77;15.48;;;;;;;19.60;76.41;101967.22;7398420;19;20085;-64
2023/09/10 07:29:50;;;;;;;18.10;14.93;;;;;;;19.75;75.92;101967.66;7396677;19;20100;-64
2023/09/10 07:32:19;;;;;;;18.75;16.67;;;;;;;19.77;75.83;101963.00;7396816;19;20029;-64
2023/09/10 07:34:47;;;;;;;20.52;17.27;;;;;;;19.82;75.33;101970.66;7393447;19;20014;-64
2023/09/10 07:37:14;;;;;;;17.80;15.50;;;;;;;19.72;76.14;101965.25;7396678;19;20413;-64
2023/09/10 07:39:42;;;;;;;19.80;17.13;;;;;;;19.77;76.24;101963.00;7398215;19;20543;-64
2023/09/10 07:42:09;;;;;;;27.05;22.95;;;;;;;19.90;75.79;101968.06;7397780;19;20025;-64
2023/09/10 07:44:37;;;;;;;18.90;16.08;;;;;;;20.03;75.11;101965.91;7394990;19;20022;-63
2023/09/10 07:47:04;;;;;;;18.85;16.35;;;;;;;20.05;75.30;101963.94;7397880;19;20092;-63
2023/09/10 07:49:32;;;;;;;17.65;14.48;;;;;;;20.08;75.43;101966.34;7397525;19;20018;-63
2023/09/10 07:52:03;;;;;;;17.27;14.95;;;;;;;20.16;75.15;101971.84;7397720;19;20042;-63
2023/09/10 07:54:31;;;;;;;19.63;16.27;;;;;;;20.16;74.92;101979.06;7394492;19;20020;-63
2023/09/10 07:56:58;;;;;;;17.33;14.10;;;;;;;20.12;75.24;101972.28;7397570;19;20017;-63
2023/09/10 07:59:26;;;;;;;17.30;14.88;;;;;;;20.17;74.55;101973.53;7397565;19;20018;-63
2023/09/10 08:01:53;;;;;;;18.75;16.25;;;;;;;20.22;74.63;101970.41;7398086;19;20014;-63
2023/09/10 08:04:21;;;;;;;20.88;15.57;;;;;;;20.28;74.47;101975.19;7396404;19;20019;-63
2023/09/10 08:06:49;;;;;;;17.70;15.73;;;;;;;20.29;74.19;101979.59;7398650;19;20018;-63
2023/09/10 08:09:16;;;;;;;18.30;15.07;;;;;;;20.30;74.54;101986.69;7398922;19;20089;-63
2023/09/10 08:11:44;;;;;;;18.75;15.90;;;;;;;20.37;74.00;101987.75;7397473;19;20029;-63
2023/09/10 08:14:12;;;;;;;17.33;14.32;;;;;;;20.35;74.35;101984.38;7393140;19;20022;-63
2023/09/10 08:16:39;;;;;;;17.67;15.18;;;;;;;20.34;74.20;101987.25;7395458;19;20018;-63
2023/09/10 08:19:07;;;;;;;17.70;14.80;;;;;;;20.43;73.90;101986.34;7393514;19;20492;-63
2023/09/10 08:21:34;;;;;;;19.33;15.30;;;;;;;20.49;73.78;101992.97;7396617;19;20119;-63
2023/09/10 08:24:02;;;;;;;17.48;15.25;;;;;;;20.55;73.49;101990.56;7394005;19;20026;-63
2023/09/10 08:26:30;;;;;;;19.73;17.17;;;;;;;20.39;73.86;101988.47;7396617;19;20018;-63
2023/09/10 08:28:57;;;;;;;19.95;16.58;;;;;;;20.38;74.36;101992.19;7396923;19;20425;-63
2023/09/10 08:31:25;;;;;;;18.65;15.43;;;;;;;20.46;74.22;101999.50;7396241;19;20043;-63
2023/09/10 08:33:52;;;;;;;18.38;15.38;;;;;;;20.50;73.38;101997.41;7394270;19;20113;-63
2023/09/10 08:36:20;;;;;;;17.55;14.95;;;;;;;20.42;73.77;101987.34;7396390;19;20023;-63
2023/09/10 08:38:47;;;;;;;17.23;14.50;;;;;;;20.43;73.77;101994.41;7396280;19;20025;-63
2023/09/10 08:41:21;;;;;;;18.40;15.10;;;;;;;20.58;73.00;102000.22;7396210;19;20034;-63
2023/09/10 08:43:56;;;;;;;15.98;13.85;;;;;;;20.54;73.29;101996.97;7393771;19;20014;-63
2023/09/10 08:46:30;;;;;;;16.52;13.85;;;;;;;20.53;73.18;101992.56;7396131;19;20043;-63
2023/09/10 08:48:58;;;;;;;16.55;13.32;;;;;;;20.40;73.45;102000.94;7394736;19;20016;-63
2023/09/10 08:51:27;;;;;;;16.83;13.60;;;;;;;20.40;73.45;101995.56;7395923;19;20023;-63
2023/09/10 08:53:57;;;;;;;15.95;13.68;;;;;;;20.45;73.69;102003.16;7394369;19;20460;-63
2023/09/10 08:56:26;;;;;;;15.20;11.75;;;;;;;20.45;73.53;101987.91;7395666;19;20022;-64
2023/09/10 08:58:55;;;;;;;14.95;12.63;;;;;;;20.51;72.76;101994.56;7395641;19;20491;-64
2023/09/10 09:01:24;;;;;;;15.88;12.73;;;;;;;20.58;72.74;101998.34;7393971;19;20018;-64
2023/09/10 09:03:52;;;;;;;16.13;12.60;;;;;;;20.62;72.97;101996.22;7393685;19;20021;-64
2023/09/10 09:06:20;;;;;;;15.82;12.30;;;;;;;20.64;72.56;101997.78;7394810;19;20023;-64
2023/09/10 09:08:51;;;;;;;15.10;12.48;;;;;;;20.65;72.80;101995.94;7395427;19;20038;-64
2023/09/10 09:11:24;;;;;;;15.68;12.23;;;;;;;20.67;72.25;101993.91;7393167;19;20019;-64
2023/09/10 09:13:53;;;;;;;14.38;11.57;;;;;;;20.68;72.31;101998.28;7393236;19;20025;-64
2023/09/10 09:16:20;;;;;;;15.95;12.50;;;;;;;20.75;71.95;102001.25;7394863;19;20491;-64
2023/09/10 09:18:48;;;;;;;14.40;11.65;;;;;;;20.82;72.26;101997.81;7394813;19;20015;-63
2023/09/10 09:21:20;;;;;;;16.48;11.93;;;;;;;20.91;72.09;101998.78;7395361;19;20082;-64
2023/09/10 09:23:59;;;;;;;17.15;14.20;;;;;;;20.93;71.73;101994.06;7393296;19;20035;-64
2023/09/10 09:26:30;;;;;;;14.63;12.32;;;;;;;20.89;71.74;101993.53;7393107;19;20019;-64
2023/09/10 09:28:58;;;;;;;15.32;12.60;;;;;;;20.94;72.17;101993.06;7394179;19;20015;-64
2023/09/10 09:31:25;;;;;;;15.57;12.30;;;;;;;21.04;71.96;101979.56;7394613;19;20058;-64
2023/09/10 09:33:53;;;;;;;15.15;12.60;;;;;;;21.11;71.79;101976.09;7392757;19;20046;-64
2023/09/10 09:36:26;;;;;;;16.95;13.15;;;;;;;21.17;71.64;101988.09;7391836;19;20022;-64
2023/09/10 09:38:54;;;;;;;14.68;11.75;;;;;;;21.14;71.54;101977.66;7392775;19;20480;-64
2023/09/10 09:41:21;;;;;;;15.15;11.85;;;;;;;21.19;71.32;101978.03;7394155;19;20364;-64
2023/09/10 09:43:49;;;;;;;15.10;12.82;;;;;;;21.24;71.38;101980.25;7390685;19;20014;-64
2023/09/10 09:46:17;;;;;;;14.80;11.60;;;;;;;21.31;71.88;101976.81;7393756;19;20093;-64
2023/09/10 09:48:45;;;;;;;15.95;12.73;;;;;;;21.39;70.86;101974.22;7393606;19;20101;-64
2023/09/10 09:51:14;;;;;;;16.80;13.05;;;;;;;21.41;70.66;101974.09;7392434;19;20050;-64
2023/09/10 09:53:42;;;;;;;16.38;12.30;;;;;;;21.40;71.05;101975.91;7392536;19;20047;-64
2023/09/10 09:56:10;;;;;;;16.10;12.15;;;;;;;21.43;71.15;101966.66;7392400;19;20089;-64
2023/09/10 09:58:37;;;;;;;15.30;11.30;;;;;;;21.49;70.72;101973.31;7394449;19;20035;-63
2023/09/10 10:01:06;;;;;;;15.30;11.65;;;;;;;21.55;70.54;101970.81;7392725;19;20016;-62
2023/09/10 10:03:33;;;;;;;15.77;12.13;;;;;;;21.60;69.79;101968.53;7390389;19;20018;-62
2023/09/10 10:06:01;;;;;;;16.25;12.00;;;;;;;21.63;69.38;101959.25;7393208;19;20018;-62
2023/09/10 10:08:30;;;;;;;16.38;12.55;;;;;;;21.69;69.45;101963.19;7393749;19;20082;-62
2023/09/10 10:10:58;;;;;;;16.73;11.93;;;;;;;21.74;69.54;101953.63;7393259;19;20035;-62
2023/09/10 10:13:27;;;;;;;17.55;12.40;;;;;;;21.76;69.42;101954.31;7389815;19;20026;-62
2023/09/10 10:15:55;;;;;;;19.73;13.02;;;;;;;21.75;69.27;101958.03;7391567;19;20018;-62
2023/09/10 10:18:26;;;;;;;15.20;11.27;;;;;;;21.79;68.68;101959.41;7392959;19;20025;-62
2023/09/10 10:20:58;;;;;;;18.42;13.90;;;;;;;21.85;68.74;101957.91;7392732;19;20491;-62
2023/09/10 10:23:26;;;;;;;15.25;10.57;;;;;;;21.85;68.76;101958.75;7389676;19;20029;-62
2023/09/10 10:25:55;;;;;;;17.83;13.05;;;;;;;21.96;68.21;101962.22;7392745;19;20361;-63
2023/09/10 10:28:23;;;;;;;17.10;12.40;;;;;;;22.05;68.04;101963.94;7391008;19;20476;-63
2023/09/10 10:31:14;;;;;;;19.63;13.50;;;;;;;22.11;67.76;101957.94;7391807;19;20081;-62
2023/09/10 10:33:50;;;;;;;18.77;13.30;;;;;;;22.07;68.39;101957.41;7389175;19;20015;-62
2023/09/10 10:36:53;;;;;;;23.10;15.88;;;;;;;22.16;68.00;101960.19;7391197;19;20011;-62
2023/09/10 10:39:32;;;;;;;24.20;16.67;;;;;;;22.10;68.10;101958.94;7391940;19;20017;-62
2023/09/10 10:42:02;;;;;;;23.10;15.05;;;;;;;22.08;68.08;101947.44;7391315;19;20018;-62
2023/09/10 10:44:34;;;;;;;20.80;14.30;;;;;;;22.15;67.65;101943.16;7388897;19;20427;-62
2023/09/10 10:47:12;;;;;;;23.02;14.77;;;;;;;22.26;67.69;101942.03;7392315;19;20519;-62
2023/09/10 10:49:49;;;;;;;21.20;15.02;;;;;;;22.29;68.18;101945.25;7392236;19;20026;-63
2023/09/10 10:52:29;;;;;;;23.13;14.30;;;;;;;22.31;67.83;101937.81;7390695;19;20491;-63
2023/09/10 10:54:57;;;;;;;19.48;13.60;;;;;;;22.31;67.74;101931.59;7389672;19;20022;-63
2023/09/10 10:57:26;;;;;;;18.80;12.30;;;;;;;22.35;67.33;101927.56;7391740;19;20042;-63
2023/09/10 10:59:54;;;;;;;22.13;14.52;;;;;;;22.43;67.63;101934.84;7392065;19;20019;-63
2023/09/10 11:02:23;;;;;;;23.75;14.90;;;;;;;22.50;67.41;101930.50;7391161;19;20381;-62
2023/09/10 11:05:03;;;;;;;27.60;18.80;;;;;;;22.55;67.57;101929.00;7388753;19;20086;-62
2023/09/10 11:07:31;;;;;;;31.55;20.58;;;;;;;22.51;68.05;101926.78;7389709;19;20027;-62
2023/09/10 11:10:26;;;;;;;32.45;20.05;;;;;;;22.57;68.01;101926.97;7391352;19;20476;-62
2023/09/10 11:13:09;;;;;;;33.22;19.98;;;;;;;22.56;68.39;101919.91;7390172;19;20014;-62
2023/09/10 11:15:56;;;;;;;;;;;;;;;22.42;68.73;101917.81;7391110;19;20043;-63
2023/09/10 11:18:36;;;;;;;35.17;21.67;;;;;;;22.56;68.22;101921.75;7390562;19;20271;-62